Time;durP1;ratioP1;P1;durP2;ratioP2;P2;SDS_P1;SDS_P2;PMS_P1;PMS_P2;Temp;Humidity;BMP_temperature;BMP_pressure;BME280_temperature;BME280_humidity;BME280_pressure;Samples;Min_cycle;Max_cycle;Signal;HPM_P1;HPM_P2
2021/08/05 00:01:01;;;;;;;2.80;1.80;;;;;;;;;;5078063;28;20539;-73
2021/08/05 00:03:28;;;;;;;2.60;1.90;;;;;;;;;;5077090;28;21092;-74
2021/08/05 00:05:56;;;;;;;2.77;1.70;;;;;;;;;;5077479;28;20486;-73
2021/08/05 00:08:24;;;;;;;3.30;1.67;;;;;;;;;;5077514;28;20472;-73
2021/08/05 00:10:53;;;;;;;2.50;1.80;;;;;;;;;;5077826;28;20535;-72
2021/08/05 00:13:21;;;;;;;5.03;2.10;;;;;;;;;;5076891;28;20456;-73
2021/08/05 00:15:49;;;;;;;2.50;1.77;;;;;;;;;;5077452;28;20461;-73
2021/08/05 00:18:17;;;;;;;2.20;1.53;;;;;;;;;;5077512;28;20756;-73
2021/08/05 00:20:45;;;;;;;5.07;2.30;;;;;;;;;;5077684;28;20549;-73
2021/08/05 00:23:12;;;;;;;5.23;1.80;;;;;;;;;;5077692;28;20484;-73
2021/08/05 00:25:40;;;;;;;2.13;1.67;;;;;;;;;;5077569;28;20463;-73
2021/08/05 00:28:09;;;;;;;2.70;1.73;;;;;;;;;;5077591;28;20811;-73
2021/08/05 00:30:37;;;;;;;6.40;2.10;;;;;;;;;;5077652;28;20480;-72
2021/08/05 00:33:05;;;;;;;3.43;1.77;;;;;;;;;;5077382;28;20503;-74
2021/08/05 00:35:33;;;;;;;3.40;2.30;;;;;;;;;;5077214;28;20475;-74
2021/08/05 00:38:01;;;;;;;5.93;2.57;;;;;;;;;;5077484;28;20460;-74
2021/08/05 00:40:28;;;;;;;2.83;2.13;;;;;;;;;;5076973;28;21456;-73
2021/08/05 00:42:56;;;;;;;4.17;2.40;;;;;;;;;;5076953;28;20452;-73
2021/08/05 00:45:25;;;;;;;4.57;3.13;;;;;;;;;;5076993;28;20544;-73
2021/08/05 00:47:54;;;;;;;3.17;2.37;;;;;;;;;;5077181;28;20464;-73
2021/08/05 00:50:22;;;;;;;4.40;1.90;;;;;;;;;;5077785;28;20488;-73
2021/08/05 00:52:50;;;;;;;2.87;1.97;;;;;;;;;;5077368;28;20525;-73
2021/08/05 00:55:18;;;;;;;2.43;1.90;;;;;;;;;;5078073;28;20712;-73
2021/08/05 00:57:46;;;;;;;2.77;1.67;;;;;;;;;;5077315;28;20522;-73
2021/08/05 01:00:14;;;;;;;3.73;2.30;;;;;;;;;;5077511;28;20464;-73
2021/08/05 01:02:46;;;;;;;5.07;2.03;;;;;;;;;;5077716;28;20865;-73
2021/08/05 01:05:14;;;;;;;3.07;1.50;;;;;;;;;;5077397;28;20555;-73
2021/08/05 01:07:43;;;;;;;3.20;1.70;;;;;;;;;;5077653;28;20860;-73
2021/08/05 01:10:13;;;;;;;4.93;2.03;;;;;;;;;;5077746;28;20548;-73
2021/08/05 01:12:44;;;;;;;4.07;2.20;;;;;;;;;;5077685;28;20487;-72
2021/08/05 01:15:14;;;;;;;2.60;2.00;;;;;;;;;;5077609;28;20460;-73
2021/08/05 01:17:42;;;;;;;5.83;2.50;;;;;;;;;;5077131;28;20483;-73
2021/08/05 01:20:14;;;;;;;3.87;2.10;;;;;;;;;;5077347;28;20767;-73
2021/08/05 01:22:45;;;;;;;2.47;1.73;;;;;;;;;;5077275;28;20531;-72
2021/08/05 01:25:15;;;;;;;3.10;2.13;;;;;;;;;;5077707;28;20546;-73
2021/08/05 01:27:45;;;;;;;3.23;2.10;;;;;;;;;;5077524;28;20454;-74
2021/08/05 01:30:13;;;;;;;3.00;2.70;;;;;;;;;;5077433;28;20848;-73
2021/08/05 01:32:41;;;;;;;3.80;2.20;;;;;;;;;;5077115;28;20457;-73
2021/08/05 01:35:11;;;;;;;2.47;1.83;;;;;;;;;;5077276;28;20551;-73
2021/08/05 01:37:42;;;;;;;9.50;2.93;;;;;;;;;;5077452;28;20453;-73
2021/08/05 01:40:14;;;;;;;3.00;1.93;;;;;;;;;;5077473;28;20468;-73
2021/08/05 01:42:42;;;;;;;2.67;1.67;;;;;;;;;;5077061;28;21094;-72
2021/08/05 01:45:12;;;;;;;2.63;2.03;;;;;;;;;;5076965;28;20457;-73
2021/08/05 01:47:41;;;;;;;5.30;2.10;;;;;;;;;;5076774;28;20460;-73
2021/08/05 01:50:09;;;;;;;2.30;1.60;;;;;;;;;;5077264;28;20523;-74
2021/08/05 01:52:38;;;;;;;2.63;1.90;;;;;;;;;;5076972;28;20461;-73
2021/08/05 01:55:06;;;;;;;3.20;1.70;;;;;;;;;;5077251;28;20496;-73
2021/08/05 01:57:34;;;;;;;3.07;2.10;;;;;;;;;;5080937;28;20733;-73
2021/08/05 02:00:02;;;;;;;2.87;2.00;;;;;;;;;;5081145;28;20548;-72
2021/08/05 02:02:31;;;;;;;4.83;2.13;;;;;;;;;;5080998;28;20488;-73
2021/08/05 02:05:03;;;;;;;4.20;1.87;;;;;;;;;;5080783;28;20472;-73
2021/08/05 02:07:34;;;;;;;3.30;2.07;;;;;;;;;;5080545;28;21090;-72
2021/08/05 02:10:05;;;;;;;6.00;1.93;;;;;;;;;;5080870;28;20488;-73
2021/08/05 02:12:34;;;;;;;4.30;2.40;;;;;;;;;;5080973;28;20453;-74
2021/08/05 02:15:03;;;;;;;2.37;1.57;;;;;;;;;;5080688;28;20455;-73
2021/08/05 02:17:34;;;;;;;2.40;1.77;;;;;;;;;;5080414;28;20452;-73
2021/08/05 02:20:06;;;;;;;1.80;1.20;;;;;;;;;;5080359;28;20476;-73
2021/08/05 02:22:34;;;;;;;3.23;2.27;;;;;;;;;;5080191;28;20531;-73
2021/08/05 02:25:02;;;;;;;5.70;1.80;;;;;;;;;;5080209;28;20975;-74
2021/08/05 02:27:30;;;;;;;2.67;1.80;;;;;;;;;;5079687;28;20986;-73
2021/08/05 02:30:00;;;;;;;2.80;2.10;;;;;;;;;;5080065;28;20583;-73
2021/08/05 02:32:29;;;;;;;6.53;1.80;;;;;;;;;;5080412;28;20530;-73
2021/08/05 02:34:58;;;;;;;3.63;2.23;;;;;;;;;;5079650;28;20559;-73
2021/08/05 02:37:26;;;;;;;3.30;1.90;;;;;;;;;;5080656;28;20900;-73
2021/08/05 02:39:54;;;;;;;3.43;2.00;;;;;;;;;;5080209;28;20585;-73
2021/08/05 02:42:22;;;;;;;3.07;1.70;;;;;;;;;;5080148;28;20810;-73
2021/08/05 02:44:50;;;;;;;3.77;1.87;;;;;;;;;;5080293;28;20736;-73
2021/08/05 02:47:18;;;;;;;2.90;2.00;;;;;;;;;;5080730;28;20453;-73
2021/08/05 02:49:45;;;;;;;9.10;2.03;;;;;;;;;;5079874;28;20583;-73
2021/08/05 02:52:18;;;;;;;2.20;1.60;;;;;;;;;;5080110;28;20455;-73
2021/08/05 02:54:46;;;;;;;3.17;2.00;;;;;;;;;;5080343;28;20478;-72
2021/08/05 02:57:14;;;;;;;3.53;2.10;;;;;;;;;;5079868;28;20947;-73
2021/08/05 02:59:42;;;;;;;3.70;1.70;;;;;;;;;;5080125;28;20555;-73
2021/08/05 03:02:10;;;;;;;3.40;1.53;;;;;;;;;;5079499;28;20531;-73
2021/08/05 03:04:38;;;;;;;3.17;1.93;;;;;;;;;;5079028;28;21078;-73
2021/08/05 03:07:07;;;;;;;4.10;2.40;;;;;;;;;;5078920;28;20555;-73
2021/08/05 03:09:36;;;;;;;4.80;1.83;;;;;;;;;;5079220;28;20488;-73
2021/08/05 03:12:04;;;;;;;3.00;1.93;;;;;;;;;;5079435;28;20748;-72
2021/08/05 03:14:32;;;;;;;3.33;2.47;;;;;;;;;;5079016;28;20460;-73
2021/08/05 03:17:00;;;;;;;2.80;2.00;;;;;;;;;;5079437;28;20525;-73
2021/08/05 03:19:28;;;;;;;4.87;1.60;;;;;;;;;;5079273;28;20559;-72
2021/08/05 03:21:55;;;;;;;4.03;2.10;;;;;;;;;;5079038;28;20460;-73
2021/08/05 03:24:23;;;;;;;6.77;2.63;;;;;;;;;;5079112;28;20941;-73
2021/08/05 03:26:52;;;;;;;5.00;1.77;;;;;;;;;;5079458;28;20860;-73
2021/08/05 03:29:20;;;;;;;3.80;2.10;;;;;;;;;;5079325;28;20467;-73
2021/08/05 03:31:55;;;;;;;4.37;1.83;;;;;;;;;;5078405;28;20457;-73
2021/08/05 03:34:23;;;;;;;6.60;2.17;;;;;;;;;;5070386;28;20792;-73
2021/08/05 03:36:50;;;;;;;3.90;2.33;;;;;;;;;;5058800;28;20743;-73
2021/08/05 03:39:18;;;;;;;3.90;2.03;;;;;;;;;;5058497;28;21000;-73
2021/08/05 03:41:46;;;;;;;4.40;2.37;;;;;;;;;;5058928;28;20511;-73
2021/08/05 03:44:15;;;;;;;2.73;2.07;;;;;;;;;;5059013;28;20817;-73
2021/08/05 03:46:43;;;;;;;3.73;2.30;;;;;;;;;;5058673;28;21056;-73
2021/08/05 03:49:11;;;;;;;5.33;2.17;;;;;;;;;;5057904;28;20559;-73
2021/08/05 03:51:39;;;;;;;3.30;2.30;;;;;;;;;;5057689;28;21088;-73
2021/08/05 03:54:06;;;;;;;4.30;2.20;;;;;;;;;;5058328;28;20458;-73
2021/08/05 03:56:34;;;;;;;7.97;2.57;;;;;;;;;;5058303;28;20469;-73
2021/08/05 03:59:02;;;;;;;4.10;1.90;;;;;;;;;;5058500;28;20481;-73
2021/08/05 04:01:32;;;;;;;4.57;2.70;;;;;;;;;;5057710;28;20485;-73
2021/08/05 04:03:59;;;;;;;6.10;2.53;;;;;;;;;;5057998;28;20465;-73
2021/08/05 04:06:27;;;;;;;5.03;2.70;;;;;;;;;;5057649;28;20468;-73
2021/08/05 04:08:55;;;;;;;3.50;2.93;;;;;;;;;;5057927;28;20464;-73
2021/08/05 04:11:26;;;;;;;4.13;2.17;;;;;;;;;;5057935;28;20511;-73
2021/08/05 04:13:53;;;;;;;3.90;2.43;;;;;;;;;;5057578;28;20600;-73
2021/08/05 04:16:21;;;;;;;3.00;2.13;;;;;;;;;;5050611;28;20500;-73
2021/08/05 04:18:50;;;;;;;3.50;2.37;;;;;;;;;;5057029;28;20975;-73
2021/08/05 04:21:18;;;;;;;4.57;2.27;;;;;;;;;;5056933;28;20469;-73
2021/08/05 04:23:51;;;;;;;4.77;2.77;;;;;;;;;;5057229;28;20469;-73
2021/08/05 04:26:18;;;;;;;3.60;2.33;;;;;;;;;;5057032;28;20457;-73
2021/08/05 04:28:46;;;;;;;3.80;2.40;;;;;;;;;;5057126;28;20700;-73
2021/08/05 04:31:14;;;;;;;6.57;2.90;;;;;;;;;;5057179;28;20932;-73
2021/08/05 04:33:42;;;;;;;4.97;2.07;;;;;;;;;;5056803;28;20532;-74
2021/08/05 04:36:11;;;;;;;4.60;2.57;;;;;;;;;;5056667;28;20739;-72
2021/08/05 04:38:39;;;;;;;4.80;2.50;;;;;;;;;;5056367;28;20876;-72
2021/08/05 04:41:06;;;;;;;3.70;2.73;;;;;;;;;;5057095;28;20878;-73
2021/08/05 04:43:34;;;;;;;3.30;2.53;;;;;;;;;;5056091;28;20484;-73
2021/08/05 04:46:02;;;;;;;3.30;2.47;;;;;;;;;;5056293;28;20472;-73
2021/08/05 04:48:33;;;;;;;3.10;2.13;;;;;;;;;;5056106;28;20591;-73
2021/08/05 04:51:00;;;;;;;4.50;2.80;;;;;;;;;;5056395;28;20779;-73
2021/08/05 04:53:30;;;;;;;4.20;2.60;;;;;;;;;;5056021;28;20485;-73
2021/08/05 04:55:57;;;;;;;5.97;4.43;;;;;;;;;;5056417;28;20462;-73
2021/08/05 04:58:25;;;;;;;3.47;2.13;;;;;;;;;;5055827;28;20454;-73
2021/08/05 05:00:53;;;;;;;4.87;2.30;;;;;;;;;;5055635;28;20720;-71
2021/08/05 05:03:21;;;;;;;5.30;2.40;;;;;;;;;;5055689;28;20465;-72
2021/08/05 05:05:49;;;;;;;3.67;2.63;;;;;;;;;;5056154;28;20504;-73
2021/08/05 05:08:18;;;;;;;5.40;2.50;;;;;;;;;;5055874;28;20503;-73
2021/08/05 05:10:48;;;;;;;4.07;2.23;;;;;;;;;;5055543;28;20485;-73
2021/08/05 05:13:15;;;;;;;4.17;2.23;;;;;;;;;;5055914;28;20489;-73
2021/08/05 05:15:43;;;;;;;3.00;2.50;;;;;;;;;;5055966;28;20461;-73
2021/08/05 05:18:12;;;;;;;3.50;2.00;;;;;;;;;;5055334;28;20543;-73
2021/08/05 05:20:39;;;;;;;3.73;2.20;;;;;;;;;;5055969;28;20828;-73
2021/08/05 05:23:08;;;;;;;6.13;2.27;;;;;;;;;;5056922;28;20461;-74
2021/08/05 05:25:39;;;;;;;2.77;2.20;;;;;;;;;;5055762;28;20489;-73
2021/08/05 05:28:09;;;;;;;5.47;2.50;;;;;;;;;;5055455;28;20454;-73
2021/08/05 05:30:37;;;;;;;4.03;2.37;;;;;;;;;;5072645;28;20768;-73
2021/08/05 05:33:05;;;;;;;6.43;3.30;;;;;;;;;;5075824;28;20901;-73
2021/08/05 05:35:40;;;;;;;5.73;2.50;;;;;;;;;;5076392;28;20487;-74
2021/08/05 05:38:11;;;;;;;3.43;2.20;;;;;;;;;;5055705;28;20461;-74
2021/08/05 05:40:42;;;;;;;3.93;2.43;;;;;;;;;;5060259;28;20468;-74
2021/08/05 05:43:12;;;;;;;5.07;3.07;;;;;;;;;;5077443;28;20863;-74
2021/08/05 05:45:40;;;;;;;5.30;2.43;;;;;;;;;;5075611;28;20496;-73
2021/08/05 05:48:09;;;;;;;6.00;2.13;;;;;;;;;;5076433;28;20459;-74
2021/08/05 05:50:38;;;;;;;4.37;2.87;;;;;;;;;;5075917;28;20507;-72
2021/08/05 05:53:07;;;;;;;4.30;2.57;;;;;;;;;;5076160;28;20462;-73
2021/08/05 05:55:39;;;;;;;6.70;2.53;;;;;;;;;;5075402;28;20762;-72
2021/08/05 05:58:10;;;;;;;5.63;2.90;;;;;;;;;;5074631;28;20480;-73
2021/08/05 06:00:39;;;;;;;5.47;2.83;;;;;;;;;;5072544;28;20459;-72
2021/08/05 06:03:07;;;;;;;6.20;4.17;;;;;;;;;;5075984;28;20852;-72
2021/08/05 06:05:35;;;;;;;2.97;2.33;;;;;;;;;;5076416;28;20459;-73
2021/08/05 06:08:03;;;;;;;4.40;2.20;;;;;;;;;;5076411;28;20463;-73
2021/08/05 06:10:31;;;;;;;5.70;3.53;;;;;;;;;;5076132;28;20824;-73
2021/08/05 06:12:59;;;;;;;3.60;1.90;;;;;;;;;;5062935;28;20470;-73
2021/08/05 06:15:26;;;;;;;4.20;2.03;;;;;;;;;;5078031;28;20558;-73
2021/08/05 06:17:55;;;;;;;7.90;2.50;;;;;;;;;;5074066;28;20536;-73
2021/08/05 06:20:23;;;;;;;4.53;2.20;;;;;;;;;;5067827;28;20525;-73
2021/08/05 06:22:51;;;;;;;4.83;2.40;;;;;;;;;;5075480;28;20555;-72
2021/08/05 06:25:19;;;;;;;5.33;2.57;;;;;;;;;;5074953;28;20563;-72
2021/08/05 06:27:47;;;;;;;3.17;1.83;;;;;;;;;;5073915;28;20529;-72
2021/08/05 06:30:16;;;;;;;7.27;3.57;;;;;;;;;;5074251;28;20525;-72
2021/08/05 06:32:44;;;;;;;3.67;2.13;;;;;;;;;;5075466;28;20460;-73
2021/08/05 06:35:13;;;;;;;5.23;2.20;;;;;;;;;;5075833;28;20472;-73
2021/08/05 06:37:41;;;;;;;3.90;2.13;;;;;;;;;;5076238;28;20453;-73
2021/08/05 06:40:09;;;;;;;3.40;2.43;;;;;;;;;;5077703;28;20482;-72
2021/08/05 06:42:38;;;;;;;3.40;2.40;;;;;;;;;;5079423;28;20473;-72
2021/08/05 06:45:10;;;;;;;4.73;2.47;;;;;;;;;;5079056;28;20517;-72
2021/08/05 06:47:41;;;;;;;3.30;1.87;;;;;;;;;;5078207;28;20450;-72
2021/08/05 06:50:09;;;;;;;3.77;2.00;;;;;;;;;;5064657;28;20562;-72
2021/08/05 06:52:39;;;;;;;6.20;2.00;;;;;;;;;;5058220;28;20822;-72
2021/08/05 06:55:07;;;;;;;8.63;2.37;;;;;;;;;;5058287;28;20785;-72
2021/08/05 06:57:35;;;;;;;4.60;2.23;;;;;;;;;;5058664;28;20449;-72
2021/08/05 07:00:04;;;;;;;2.90;2.00;;;;;;;;;;5069262;28;20456;-73
2021/08/05 07:02:37;;;;;;;2.70;1.90;;;;;;;;;;5078551;28;20484;-72
2021/08/05 07:05:06;;;;;;;3.60;2.00;;;;;;;;;;5078877;28;20453;-72
2021/08/05 07:07:34;;;;;;;5.23;2.20;;;;;;;;;;5078360;28;20856;-73
2021/08/05 07:10:08;;;;;;;5.33;2.00;;;;;;;;;;5078160;28;20452;-73
2021/08/05 07:12:35;;;;;;;3.27;2.40;;;;;;;;;;5077615;28;20765;-73
2021/08/05 07:15:03;;;;;;;5.67;1.90;;;;;;;;;;5078502;28;20551;-73
2021/08/05 07:17:31;;;;;;;2.63;2.20;;;;;;;;;;5076621;28;20548;-73
2021/08/05 07:19:59;;;;;;;5.67;2.67;;;;;;;;;;5078428;28;20479;-73
2021/08/05 07:22:26;;;;;;;3.80;3.30;;;;;;;;;;5078666;28;20464;-73
2021/08/05 07:24:54;;;;;;;3.93;2.27;;;;;;;;;;5077786;28;20478;-73
2021/08/05 07:27:25;;;;;;;3.30;2.13;;;;;;;;;;5079218;28;20869;-74
2021/08/05 07:29:54;;;;;;;4.57;2.80;;;;;;;;;;5078797;28;20487;-74
2021/08/05 07:32:21;;;;;;;6.70;2.50;;;;;;;;;;5076702;28;20973;-74
2021/08/05 07:34:49;;;;;;;2.90;2.37;;;;;;;;;;5077392;28;20456;-74
2021/08/05 07:37:17;;;;;;;4.83;2.90;;;;;;;;;;5076442;28;20461;-74
2021/08/05 07:39:45;;;;;;;4.03;2.60;;;;;;;;;;5075916;28;20899;-74
2021/08/05 07:42:16;;;;;;;4.30;2.90;;;;;;;;;;5075237;28;20559;-72
2021/08/05 07:44:45;;;;;;;4.00;3.00;;;;;;;;;;5077502;28;21117;-75
2021/08/05 07:47:14;;;;;;;4.20;2.80;;;;;;;;;;5077108;28;20472;-75
2021/08/05 07:49:42;;;;;;;4.27;2.03;;;;;;;;;;5076160;28;20448;-72
2021/08/05 07:52:11;;;;;;;4.60;3.10;;;;;;;;;;5076985;28;20785;-72
2021/08/05 07:54:42;;;;;;;7.00;3.50;;;;;;;;;;5077485;28;20479;-74
2021/08/05 07:57:11;;;;;;;5.10;2.77;;;;;;;;;;5078564;28;21023;-72
2021/08/05 07:59:45;;;;;;;6.33;3.10;;;;;;;;;;5076427;28;20907;-72
2021/08/05 08:02:14;;;;;;;5.50;3.10;;;;;;;;;;5077381;28;20511;-73
2021/08/05 08:04:42;;;;;;;3.23;2.30;;;;;;;;;;5076754;28;20449;-72
2021/08/05 08:07:10;;;;;;;3.70;2.07;;;;;;;;;;5074853;28;20453;-73
2021/08/05 08:09:48;;;;;;;6.00;3.37;;;;;;;;;;5067420;28;20481;-73
2021/08/05 08:12:19;;;;;;;3.97;2.47;;;;;;;;;;5075661;28;21071;-72
2021/08/05 08:17:37;;;;;;;5.00;2.90;;;;;;;;;;5059229;28;20453;-72
2021/08/05 08:20:15;;;;;;;4.87;2.87;;;;;;;;;;5073542;28;20452;-72
2021/08/05 08:22:51;;;;;;;4.83;3.40;;;;;;;;;;5077881;28;20456;-73
2021/08/05 08:25:19;;;;;;;4.40;3.10;;;;;;;;;;5077321;28;20460;-72
2021/08/05 08:27:50;;;;;;;6.80;2.60;;;;;;;;;;5078648;28;20480;-74
2021/08/05 08:30:21;;;;;;;4.83;3.70;;;;;;;;;;5077915;28;20883;-73
2021/08/05 08:32:51;;;;;;;4.77;2.67;;;;;;;;;;5077692;28;20864;-72
2021/08/05 08:35:22;;;;;;;4.17;2.73;;;;;;;;;;5076171;28;20445;-72
2021/08/05 08:37:50;;;;;;;4.33;2.53;;;;;;;;;;5076117;28;20480;-73
2021/08/05 08:40:23;;;;;;;19.60;15.37;;;;;;;;;;5076280;28;20464;-73
2021/08/05 08:42:51;;;;;;;5.27;3.00;;;;;;;;;;5076411;28;20468;-73
2021/08/05 08:45:19;;;;;;;2.53;2.00;;;;;;;;;;5076856;28;20476;-74
2021/08/05 08:47:48;;;;;;;3.87;2.73;;;;;;;;;;5076576;28;20883;-71
2021/08/05 08:50:20;;;;;;;3.00;2.20;;;;;;;;;;5076210;28;20492;-74
2021/08/05 08:52:49;;;;;;;3.83;2.60;;;;;;;;;;5074643;28;20742;-73
2021/08/05 08:55:18;;;;;;;4.03;2.23;;;;;;;;;;5077854;28;20933;-72
2021/08/05 08:57:46;;;;;;;3.23;2.50;;;;;;;;;;5077786;28;20538;-72
2021/08/05 09:00:14;;;;;;;5.60;3.20;;;;;;;;;;5077747;28;20456;-71
2021/08/05 09:02:46;;;;;;;2.90;2.23;;;;;;;;;;5079857;28;20456;-72
2021/08/05 09:05:21;;;;;;;4.70;2.30;;;;;;;;;;5078062;28;20472;-72
2021/08/05 09:07:52;;;;;;;4.70;2.50;;;;;;;;;;5078281;28;20486;-71
2021/08/05 09:10:23;;;;;;;3.20;2.47;;;;;;;;;;5078107;28;20484;-72
2021/08/05 09:12:54;;;;;;;4.40;2.40;;;;;;;;;;5076898;28;20492;-72
2021/08/05 09:15:56;;;;;;;3.30;2.10;;;;;;;;;;5077720;28;20544;-71
2021/08/05 09:18:29;;;;;;;3.00;2.13;;;;;;;;;;5078292;28;20997;-74
2021/08/05 09:21:09;;;;;;;4.03;2.47;;;;;;;;;;5076400;28;20457;-74
2021/08/05 09:23:54;;;;;;;4.13;2.53;;;;;;;;;;5078940;28;20465;-73
2021/08/05 09:26:26;;;;;;;6.47;2.43;;;;;;;;;;5069541;28;20718;-73
2021/08/05 09:29:01;;;;;;;4.93;2.40;;;;;;;;;;5076827;28;20480;-72
2021/08/05 09:31:30;;;;;;;4.90;2.10;;;;;;;;;;5077419;28;20455;-72
2021/08/05 09:34:02;;;;;;;3.73;1.97;;;;;;;;;;5076796;28;20468;-72
2021/08/05 09:36:35;;;;;;;4.33;2.50;;;;;;;;;;5073598;28;20465;-73
2021/08/05 09:39:15;;;;;;;4.90;2.13;;;;;;;;;;5063052;28;20895;-72
2021/08/05 09:41:52;;;;;;;5.20;2.57;;;;;;;;;;5075665;28;20472;-72
2021/08/05 09:44:21;;;;;;;4.17;2.33;;;;;;;;;;5075879;28;20968;-72
2021/08/05 09:47:02;;;;;;;4.10;2.17;;;;;;;;;;5064811;28;20468;-72
2021/08/05 09:49:34;;;;;;;5.90;2.20;;;;;;;;;;5066476;28;20468;-71
2021/08/05 09:52:07;;;;;;;6.83;4.00;;;;;;;;;;5077918;28;20768;-74
2021/08/05 09:54:40;;;;;;;5.10;2.90;;;;;;;;;;5075880;28;20448;-72
2021/08/05 09:57:09;;;;;;;4.43;2.37;;;;;;;;;;5076013;28;20958;-74
2021/08/05 09:59:53;;;;;;;2.60;2.10;;;;;;;;;;5068686;28;20449;-73
2021/08/05 10:02:22;;;;;;;2.47;1.77;;;;;;;;;;5056012;28;20472;-74
2021/08/05 10:04:50;;;;;;;3.43;1.87;;;;;;;;;;5055672;28;20464;-73
2021/08/05 10:07:20;;;;;;;3.47;2.27;;;;;;;;;;5056959;28;20461;-73
2021/08/05 10:09:57;;;;;;;3.40;2.40;;;;;;;;;;5064509;28;20448;-73
2021/08/05 10:12:31;;;;;;;4.00;2.83;;;;;;;;;;5076482;28;20771;-74
2021/08/05 10:15:10;;;;;;;5.13;2.53;;;;;;;;;;5075768;28;20455;-73
2021/08/05 10:17:38;;;;;;;3.10;2.53;;;;;;;;;;5078511;28;20472;-74
2021/08/05 10:20:07;;;;;;;5.13;2.47;;;;;;;;;;5080706;28;21036;-74
2021/08/05 10:22:37;;;;;;;5.47;3.07;;;;;;;;;;5078120;28;20940;-74
2021/08/05 10:25:05;;;;;;;3.43;2.60;;;;;;;;;;5078979;28;20495;-74
2021/08/05 10:27:34;;;;;;;5.37;3.37;;;;;;;;;;5078911;28;20478;-74
2021/08/05 10:30:06;;;;;;;3.90;2.20;;;;;;;;;;5085043;28;20456;-74
2021/08/05 10:32:37;;;;;;;4.67;3.50;;;;;;;;;;5078367;28;20549;-74
2021/08/05 10:35:05;;;;;;;6.13;2.90;;;;;;;;;;5062841;28;20595;-73
2021/08/05 10:37:33;;;;;;;5.53;2.80;;;;;;;;;;5071853;28;20472;-74
2021/08/05 10:40:03;;;;;;;5.17;2.73;;;;;;;;;;5080038;28;20525;-74
2021/08/05 10:42:32;;;;;;;3.73;2.47;;;;;;;;;;5078644;28;20537;-74
2021/08/05 10:45:00;;;;;;;3.93;2.50;;;;;;;;;;5079269;28;20460;-72
2021/08/05 10:47:29;;;;;;;3.40;3.00;;;;;;;;;;5079717;28;20464;-73
2021/08/05 10:49:59;;;;;;;4.63;3.20;;;;;;;;;;5078400;28;20464;-74
2021/08/05 10:52:41;;;;;;;4.50;3.90;;;;;;;;;;5080184;28;20488;-73
2021/08/05 10:55:23;;;;;;;4.40;3.00;;;;;;;;;;5078076;28;20562;-74
2021/08/05 10:58:08;;;;;;;5.40;3.57;;;;;;;;;;5075232;28;20447;-74
2021/08/05 11:00:55;;;;;;;7.80;4.30;;;;;;;;;;5078380;28;20459;-75
2021/08/05 11:03:53;;;;;;;3.80;3.07;;;;;;;;;;5081920;28;20499;-73
2021/08/05 11:06:30;;;;;;;4.30;3.30;;;;;;;;;;5065909;28;20464;-74
2021/08/05 11:09:17;;;;;;;3.33;2.00;;;;;;;;;;5074575;28;20453;-73
2021/08/05 11:11:51;;;;;;;11.73;8.03;;;;;;;;;;5093919;28;20448;-74
2021/08/05 11:14:39;;;;;;;5.10;2.40;;;;;;;;;;5079252;28;20488;-74
2021/08/05 11:17:15;;;;;;;3.30;2.10;;;;;;;;;;5076837;28;20464;-73
2021/08/05 11:19:43;;;;;;;2.77;2.43;;;;;;;;;;5082973;28;20462;-73
2021/08/05 11:22:30;;;;;;;5.30;3.73;;;;;;;;;;5078710;28;20453;-73
2021/08/05 11:25:01;;;;;;;3.43;2.07;;;;;;;;;;5084860;28;20471;-73
2021/08/05 11:27:30;;;;;;;3.30;1.70;;;;;;;;;;5069948;28;20488;-74
2021/08/05 11:30:03;;;;;;;4.83;2.70;;;;;;;;;;5061617;28;20934;-74
2021/08/05 11:32:44;;;;;;;4.50;2.20;;;;;;;;;;5071449;28;20930;-74
2021/08/05 11:35:22;;;;;;;3.63;1.80;;;;;;;;;;5083287;28;21015;-71
2021/08/05 11:38:05;;;;;;;3.37;1.83;;;;;;;;;;5076819;28;20579;-73
2021/08/05 11:40:45;;;;;;;5.43;4.10;;;;;;;;;;5083148;28;20493;-71
2021/08/05 11:43:22;;;;;;;7.63;5.30;;;;;;;;;;5079454;28;20919;-71
2021/08/05 11:46:12;;;;;;;3.37;1.97;;;;;;;;;;5075345;28;21095;-70
2021/08/05 11:48:39;;;;;;;3.63;2.43;;;;;;;;;;5066239;28;20491;-71
2021/08/05 11:51:07;;;;;;;4.03;2.10;;;;;;;;;;5077259;28;20475;-71
2021/08/05 11:53:35;;;;;;;3.60;2.07;;;;;;;;;;5077050;28;20491;-72
2021/08/05 11:56:11;;;;;;;5.47;2.00;;;;;;;;;;5084788;28;20459;-72
2021/08/05 11:58:44;;;;;;;4.50;2.43;;;;;;;;;;5072366;28;20497;-72
2021/08/05 12:01:13;;;;;;;3.40;2.30;;;;;;;;;;5078764;28;20461;-71
2021/08/05 12:03:41;;;;;;;3.33;2.30;;;;;;;;;;5074926;28;20460;-71
2021/08/05 12:06:09;;;;;;;3.60;2.50;;;;;;;;;;5073500;28;20472;-71
2021/08/05 12:08:37;;;;;;;4.27;1.90;;;;;;;;;;5077419;28;20499;-71
2021/08/05 12:11:08;;;;;;;3.67;2.10;;;;;;;;;;5083043;28;21155;-72
2021/08/05 12:13:42;;;;;;;4.47;3.53;;;;;;;;;;5087160;28;20484;-70
2021/08/05 12:16:14;;;;;;;6.10;4.57;;;;;;;;;;5079392;28;20468;-70
2021/08/05 12:18:42;;;;;;;3.63;2.20;;;;;;;;;;5078151;28;20768;-71
2021/08/05 12:21:15;;;;;;;3.90;2.10;;;;;;;;;;5077148;28;20448;-72
2021/08/05 12:23:59;;;;;;;4.50;2.90;;;;;;;;;;5062165;28;20916;-72
2021/08/05 12:26:35;;;;;;;7.10;5.67;;;;;;;;;;5091477;28;20467;-72
2021/08/05 12:29:09;;;;;;;6.60;2.37;;;;;;;;;;5074403;28;20460;-72
2021/08/05 12:31:41;;;;;;;2.60;2.10;;;;;;;;;;5067258;28;20436;-68
2021/08/05 12:34:11;;;;;;;4.50;3.40;;;;;;;;;;5084139;28;20515;-72
2021/08/05 12:36:43;;;;;;;3.03;2.40;;;;;;;;;;5097021;28;20499;-71
2021/08/05 12:39:11;;;;;;;3.33;2.13;;;;;;;;;;5097645;28;20529;-70
2021/08/05 12:41:39;;;;;;;2.50;1.80;;;;;;;;;;5097578;28;20473;-70
2021/08/05 12:44:09;;;;;;;3.87;1.97;;;;;;;;;;5094619;28;20776;-70
2021/08/05 12:46:38;;;;;;;2.63;1.90;;;;;;;;;;5077892;28;20471;-70
2021/08/05 12:49:08;;;;;;;3.90;2.33;;;;;;;;;;5073086;28;20792;-70
2021/08/05 12:51:36;;;;;;;3.00;2.10;;;;;;;;;;5076736;28;20452;-70
2021/08/05 12:54:13;;;;;;;2.83;2.20;;;;;;;;;;5075469;28;20490;-70
2021/08/05 12:56:42;;;;;;;3.40;2.00;;;;;;;;;;5073953;28;20463;-70
2021/08/05 12:59:10;;;;;;;4.50;2.30;;;;;;;;;;5075879;28;20534;-70
2021/08/05 13:01:37;;;;;;;4.37;2.40;;;;;;;;;;5076001;28;20735;-71
2021/08/05 13:04:08;;;;;;;3.10;2.43;;;;;;;;;;5076757;28;20547;-70
2021/08/05 13:06:53;;;;;;;5.03;2.90;;;;;;;;;;5078565;28;20456;-70
2021/08/05 13:09:24;;;;;;;2.87;2.17;;;;;;;;;;5075472;28;20859;-70
2021/08/05 13:11:52;;;;;;;3.10;2.10;;;;;;;;;;5081097;28;20484;-70
2021/08/05 13:14:32;;;;;;;2.87;2.03;;;;;;;;;;5074293;28;20479;-70
2021/08/05 13:17:09;;;;;;;5.40;3.10;;;;;;;;;;5075549;28;20452;-70
2021/08/05 13:19:53;;;;;;;3.90;2.63;;;;;;;;;;5074871;28;20466;-70
2021/08/05 13:22:36;;;;;;;3.20;2.40;;;;;;;;;;5070590;28;20539;-71
2021/08/05 13:25:10;;;;;;;3.57;2.80;;;;;;;;;;5077400;28;20460;-71
2021/08/05 13:27:44;;;;;;;3.57;2.10;;;;;;;;;;5077737;28;20449;-70
2021/08/05 13:30:22;;;;;;;2.97;2.37;;;;;;;;;;5077205;28;20469;-71
2021/08/05 13:32:50;;;;;;;3.10;2.07;;;;;;;;;;5074756;28;20541;-71
2021/08/05 13:35:19;;;;;;;4.50;2.40;;;;;;;;;;5076691;28;20770;-71
2021/08/05 13:37:58;;;;;;;9.10;2.60;;;;;;;;;;5077402;28;20460;-71
2021/08/05 13:40:29;;;;;;;4.37;3.60;;;;;;;;;;5054203;28;20465;-70
2021/08/05 13:42:57;;;;;;;2.80;2.10;;;;;;;;;;5066590;28;20488;-70
2021/08/05 13:45:26;;;;;;;4.93;2.37;;;;;;;;;;5074914;28;20489;-70
2021/08/05 13:47:54;;;;;;;3.77;2.10;;;;;;;;;;5077967;28;20448;-71
2021/08/05 13:50:23;;;;;;;2.83;1.90;;;;;;;;;;5077701;28;20456;-69
2021/08/05 13:52:54;;;;;;;3.00;2.10;;;;;;;;;;5074153;28;20461;-70
2021/08/05 13:55:22;;;;;;;4.50;2.43;;;;;;;;;;5061644;28;20485;-70
2021/08/05 13:57:51;;;;;;;3.13;2.20;;;;;;;;;;5078866;28;20476;-71
2021/08/05 14:00:20;;;;;;;3.10;2.37;;;;;;;;;;5072575;28;20472;-71
2021/08/05 14:02:53;;;;;;;4.10;2.13;;;;;;;;;;5062897;28;20458;-71
2021/08/05 14:05:51;;;;;;;5.70;3.50;;;;;;;;;;5072375;28;20460;-71
2021/08/05 14:08:25;;;;;;;3.20;2.10;;;;;;;;;;5070858;28;20490;-71
2021/08/05 14:10:53;;;;;;;3.73;1.90;;;;;;;;;;5083478;28;20456;-71
2021/08/05 14:13:24;;;;;;;2.80;1.87;;;;;;;;;;5081465;28;20541;-71
2021/08/05 14:15:59;;;;;;;3.30;2.30;;;;;;;;;;5083657;28;20902;-70
2021/08/05 14:18:52;;;;;;;5.40;3.20;;;;;;;;;;5082794;28;20455;-71
2021/08/05 14:21:24;;;;;;;2.63;2.17;;;;;;;;;;5082406;28;20901;-70
2021/08/05 14:23:52;;;;;;;3.23;1.80;;;;;;;;;;5082015;28;20484;-71
2021/08/05 14:26:20;;;;;;;3.77;2.40;;;;;;;;;;5071508;28;20781;-71
2021/08/05 14:28:57;;;;;;;3.90;1.87;;;;;;;;;;5078323;28;20763;-69
2021/08/05 14:31:26;;;;;;;2.93;1.80;;;;;;;;;;5060535;28;20469;-70
2021/08/05 14:33:54;;;;;;;7.10;5.43;;;;;;;;;;5063051;28;20489;-70
2021/08/05 14:36:24;;;;;;;3.77;3.47;;;;;;;;;;5062755;28;20544;-69
2021/08/05 14:38:58;;;;;;;2.83;2.07;;;;;;;;;;5077901;28;20448;-70
2021/08/05 14:41:26;;;;;;;3.00;2.13;;;;;;;;;;5081463;28;20495;-69
2021/08/05 14:44:02;;;;;;;3.53;1.77;;;;;;;;;;5087221;28;20460;-71
2021/08/05 14:46:31;;;;;;;4.50;2.33;;;;;;;;;;5080913;28;20475;-69
2021/08/05 14:49:03;;;;;;;5.93;3.13;;;;;;;;;;5079791;28;20937;-70
2021/08/05 14:51:32;;;;;;;3.20;1.87;;;;;;;;;;5092992;28;20482;-70
2021/08/05 14:54:00;;;;;;;4.37;1.73;;;;;;;;;;5082772;28;20508;-69
2021/08/05 14:56:31;;;;;;;2.50;2.00;;;;;;;;;;5083740;28;20460;-71
2021/08/05 14:59:18;;;;;;;3.47;1.90;;;;;;;;;;5084742;28;20463;-71
2021/08/05 15:01:55;;;;;;;4.53;1.80;;;;;;;;;;5083055;28;20559;-71
2021/08/05 15:04:29;;;;;;;5.40;2.90;;;;;;;;;;5083472;28;20464;-69
2021/08/05 15:07:05;;;;;;;2.23;1.77;;;;;;;;;;5085303;28;20476;-71